TAF Flughafenprognosen

Nürnberg TAF, ausgegeben Do 25.04. 07:00

TAF EDDN 250500Z 2506/2606 10007KT CAVOK BECMG 2507/2509 11013KT PROB40 TEMPO 2511/2515 14015G25KT BECMG 2515/2517 12006KT BECMG 2523/2601 28007KT
GültigkeitVonBisWind in Beaufort
(Knoten)
Wolken
(Meter über Grund)
Sichtweite
(Meter)
Wettererscheinung
Grundvorhersage Do 25.04. 08:00 Fr 26.04. 08:00 O 3 (7) Nicht signifikant >= 10000  
Übergang zu Do 25.04. 09:00 Do 25.04. 11:00 OSO 4 (13)      
Vorübergehend
(Wahrscheinlichkeit 40 %)
Do 25.04. 13:00 Do 25.04. 17:00 SO 4 (15) - 6 (25)      
Übergang zu Do 25.04. 17:00 Do 25.04. 19:00 OSO 2 (6)      
Übergang zu Fr 26.04. 01:00 Fr 26.04. 03:00 W 3 (7)      

 

Hof TAF, ausgegeben Do 25.04. 10:00

TAF EDQM 250800Z 2509/2518 12008KT CAVOK
GültigkeitVonBisWind in Beaufort
(Knoten)
Wolken
(Meter über Grund)
Sichtweite
(Meter)
Wettererscheinung
Grundvorhersage Do 25.04. 11:00 Do 25.04. 20:00 OSO 3 (8)      

 

Erfurt-Bindersleben TAF, ausgegeben Do 25.04. 07:00

TAF EDDE 250500Z 2506/2606 20008KT CAVOK BECMG 2507/2509 11010KT PROB30 TEMPO 2511/2516 11015G25KT BECMG 2522/2524 22007KT
GültigkeitVonBisWind in Beaufort
(Knoten)
Wolken
(Meter über Grund)
Sichtweite
(Meter)
Wettererscheinung
Grundvorhersage Do 25.04. 08:00 Fr 26.04. 08:00 SSW 3 (8) Nicht signifikant >= 10000  
Übergang zu Do 25.04. 09:00 Do 25.04. 11:00 OSO 3 (10)      
Vorübergehend
(Wahrscheinlichkeit 30 %)
Do 25.04. 13:00 Do 25.04. 18:00 OSO 4 (15) - 6 (25)      
Übergang zu Fr 26.04. 00:00 Fr 26.04. 02:00 SW 3 (7)      

 

Augsburg TAF, ausgegeben Do 25.04. 10:00

TAF EDMA 250800Z 2509/2518 14010KT CAVOK BECMG 2513/2515 18015G25KT
GültigkeitVonBisWind in Beaufort
(Knoten)
Wolken
(Meter über Grund)
Sichtweite
(Meter)
Wettererscheinung
Grundvorhersage Do 25.04. 11:00 Do 25.04. 20:00 SO 3 (10) Nicht signifikant >= 10000  
Übergang zu Do 25.04. 15:00 Do 25.04. 17:00 S 4 (15) - 6 (25)      

 

Frankfurt TAF, ausgegeben Do 25.04. 07:00

TAF EDDF 250500Z 2506/2612 06005KT CAVOK BECMG 2508/2510 12006KT BECMG 2515/2517 25008KT TEMPO 2517/2519 26015G30KT
GültigkeitVonBisWind in Beaufort
(Knoten)
Wolken
(Meter über Grund)
Sichtweite
(Meter)
Wettererscheinung
Grundvorhersage Do 25.04. 08:00 Fr 26.04. 14:00 ONO 2 (5) Nicht signifikant >= 10000  
Übergang zu Do 25.04. 10:00 Do 25.04. 12:00 OSO 2 (6)      
Übergang zu Do 25.04. 17:00 Do 25.04. 19:00 WSW 3 (8)      
Vorübergehend Do 25.04. 19:00 Do 25.04. 21:00 W 4 (15) - 7 (30)      

 

Stuttgart TAF, ausgegeben Do 25.04. 07:00

TAF EDDS 250500Z 2506/2606 VRB03KT CAVOK BECMG 2508/2510 14008KT BECMG 2518/2520 25004KT
GültigkeitVonBisWind in Beaufort
(Knoten)
Wolken
(Meter über Grund)
Sichtweite
(Meter)
Wettererscheinung
Grundvorhersage Do 25.04. 08:00 Fr 26.04. 08:00 Uml 2 (3) Nicht signifikant >= 10000  
Übergang zu Do 25.04. 10:00 Do 25.04. 12:00 SO 3 (8)      
Übergang zu Do 25.04. 20:00 Do 25.04. 22:00 WSW 2 (4)      

 

München TAF, ausgegeben Do 25.04. 07:00

TAF EDDM 250500Z 2506/2612 VRB02KT CAVOK BECMG 2506/2508 09009KT BECMG 2509/2511 11014KT BECMG 2512/2514 17015KT PROB40 TEMPO 2513/2516 17015G25KT BECMG 2516/2518 18006KT BECMG 2522/2524 VRB02KT BECMG 2602/2604 27008KT BECMG 2604/2606 28013KT
GültigkeitVonBisWind in Beaufort
(Knoten)
Wolken
(Meter über Grund)
Sichtweite
(Meter)
Wettererscheinung
Grundvorhersage Do 25.04. 08:00 Fr 26.04. 14:00 Uml 1 (2) Nicht signifikant >= 10000  
Übergang zu Do 25.04. 08:00 Do 25.04. 10:00 O 3 (9)      
Übergang zu Do 25.04. 11:00 Do 25.04. 13:00 OSO 4 (14)      
Übergang zu Do 25.04. 14:00 Do 25.04. 16:00 S 4 (15)      
Vorübergehend
(Wahrscheinlichkeit 40 %)
Do 25.04. 15:00 Do 25.04. 18:00 S 4 (15) - 6 (25)      
Übergang zu Do 25.04. 18:00 Do 25.04. 20:00 S 2 (6)      
Übergang zu Fr 26.04. 00:00 Fr 26.04. 02:00 Uml 1 (2)      
Übergang zu Fr 26.04. 04:00 Fr 26.04. 06:00 W 3 (8)      
Übergang zu Fr 26.04. 06:00 Fr 26.04. 08:00 W 4 (13)